sensor_id;sensor_type;location;lat;lon;timestamp;pressure;altitude;pressure_sealevel;temperature;humidity
28448;BME280;15675;52.870;-1.416;2024-03-29T00:01:34;97306.63;;;7.19;100.00
28448;BME280;15675;52.870;-1.416;2024-03-29T00:04:00;97320.25;;;7.46;100.00
28448;BME280;15675;52.870;-1.416;2024-03-29T00:06:25;97320.88;;;7.29;100.00
28448;BME280;15675;52.870;-1.416;2024-03-29T00:08:51;97336.91;;;7.37;100.00
28448;BME280;15675;52.870;-1.416;2024-03-29T00:11:16;97349.38;;;7.26;100.00
28448;BME280;15675;52.870;-1.416;2024-03-29T00:13:42;97342.81;;;7.17;100.00
28448;BME280;15675;52.870;-1.416;2024-03-29T00:16:07;97360.16;;;7.37;100.00
28448;BME280;15675;52.870;-1.416;2024-03-29T00:18:33;97346.13;;;7.45;100.00
28448;BME280;15675;52.870;-1.416;2024-03-29T00:20:58;97365.22;;;7.15;100.00
28448;BME280;15675;52.870;-1.416;2024-03-29T00:23:24;97377.41;;;7.35;100.00
28448;BME280;15675;52.870;-1.416;2024-03-29T00:25:49;97372.41;;;7.31;100.00
28448;BME280;15675;52.870;-1.416;2024-03-29T00:28:15;97384.84;;;7.19;100.00
28448;BME280;15675;52.870;-1.416;2024-03-29T00:30:41;97399.91;;;7.32;100.00
28448;BME280;15675;52.870;-1.416;2024-03-29T00:33:06;97396.28;;;7.12;100.00
28448;BME280;15675;52.870;-1.416;2024-03-29T00:35:31;97413.22;;;7.19;100.00
28448;BME280;15675;52.870;-1.416;2024-03-29T00:37:57;97425.41;;;7.16;100.00
28448;BME280;15675;52.870;-1.416;2024-03-29T00:40:22;97413.63;;;7.08;100.00
28448;BME280;15675;52.870;-1.416;2024-03-29T00:42:48;97420.56;;;7.32;100.00
28448;BME280;15675;52.870;-1.416;2024-03-29T00:45:13;97427.41;;;7.33;100.00
28448;BME280;15675;52.870;-1.416;2024-03-29T00:47:39;97423.41;;;7.24;100.00
28448;BME280;15675;52.870;-1.416;2024-03-29T00:50:05;97441.78;;;7.15;100.00
28448;BME280;15675;52.870;-1.416;2024-03-29T00:52:30;97439.66;;;7.26;100.00
28448;BME280;15675;52.870;-1.416;2024-03-29T00:54:56;97440.13;;;7.12;100.00
28448;BME280;15675;52.870;-1.416;2024-03-29T00:57:21;97452.34;;;7.32;100.00
28448;BME280;15675;52.870;-1.416;2024-03-29T00:59:47;97450.41;;;7.14;100.00
28448;BME280;15675;52.870;-1.416;2024-03-29T01:02:12;97459.78;;;7.16;100.00
28448;BME280;15675;52.870;-1.416;2024-03-29T01:04:38;97456.25;;;7.19;100.00
28448;BME280;15675;52.870;-1.416;2024-03-29T01:07:05;97471.56;;;7.23;100.00
28448;BME280;15675;52.870;-1.416;2024-03-29T01:09:30;97461.56;;;7.14;100.00
28448;BME280;15675;52.870;-1.416;2024-03-29T01:11:56;97469.25;;;7.16;100.00
28448;BME280;15675;52.870;-1.416;2024-03-29T01:14:22;97468.03;;;7.26;100.00
28448;BME280;15675;52.870;-1.416;2024-03-29T01:16:47;97473.19;;;7.01;100.00
28448;BME280;15675;52.870;-1.416;2024-03-29T01:19:13;97472.28;;;7.02;100.00
28448;BME280;15675;52.870;-1.416;2024-03-29T01:21:38;97477.13;;;7.11;100.00
28448;BME280;15675;52.870;-1.416;2024-03-29T01:24:04;97492.41;;;7.17;100.00
28448;BME280;15675;52.870;-1.416;2024-03-29T01:26:30;97486.78;;;7.06;100.00
28448;BME280;15675;52.870;-1.416;2024-03-29T01:28:56;97491.22;;;7.01;100.00
28448;BME280;15675;52.870;-1.416;2024-03-29T01:31:22;97488.25;;;6.86;100.00
28448;BME280;15675;52.870;-1.416;2024-03-29T01:33:49;97491.44;;;6.95;100.00
28448;BME280;15675;52.870;-1.416;2024-03-29T01:36:14;97500.47;;;6.81;100.00
28448;BME280;15675;52.870;-1.416;2024-03-29T01:38:40;97505.31;;;6.90;100.00
28448;BME280;15675;52.870;-1.416;2024-03-29T01:41:05;97512.41;;;6.84;100.00
28448;BME280;15675;52.870;-1.416;2024-03-29T01:43:32;97518.59;;;6.78;100.00
28448;BME280;15675;52.870;-1.416;2024-03-29T01:45:58;97515.84;;;6.84;100.00
28448;BME280;15675;52.870;-1.416;2024-03-29T01:48:24;97530.59;;;6.79;100.00
28448;BME280;15675;52.870;-1.416;2024-03-29T01:50:51;97522.66;;;6.85;100.00
28448;BME280;15675;52.870;-1.416;2024-03-29T01:53:18;97527.69;;;6.90;100.00
28448;BME280;15675;52.870;-1.416;2024-03-29T01:55:45;97531.94;;;6.91;100.00
28448;BME280;15675;52.870;-1.416;2024-03-29T01:58:11;97531.66;;;7.00;100.00
28448;BME280;15675;52.870;-1.416;2024-03-29T02:00:42;97531.00;;;6.94;100.00
28448;BME280;15675;52.870;-1.416;2024-03-29T02:03:09;97529.78;;;6.79;100.00
28448;BME280;15675;52.870;-1.416;2024-03-29T02:05:40;97539.38;;;6.73;100.00
28448;BME280;15675;52.870;-1.416;2024-03-29T02:08:06;97542.53;;;7.10;100.00
28448;BME280;15675;52.870;-1.416;2024-03-29T02:10:32;97541.97;;;7.00;100.00
28448;BME280;15675;52.870;-1.416;2024-03-29T02:13:00;97532.75;;;6.93;100.00
28448;BME280;15675;52.870;-1.416;2024-03-29T02:15:25;97539.16;;;6.80;100.00
28448;BME280;15675;52.870;-1.416;2024-03-29T02:17:51;97537.34;;;6.83;100.00
28448;BME280;15675;52.870;-1.416;2024-03-29T02:20:16;97542.34;;;6.88;100.00
28448;BME280;15675;52.870;-1.416;2024-03-29T02:22:49;97551.41;;;7.01;100.00
28448;BME280;15675;52.870;-1.416;2024-03-29T02:25:18;97551.47;;;7.00;100.00
28448;BME280;15675;52.870;-1.416;2024-03-29T02:27:43;97553.44;;;7.18;100.00
28448;BME280;15675;52.870;-1.416;2024-03-29T02:30:16;97559.88;;;7.05;100.00
28448;BME280;15675;52.870;-1.416;2024-03-29T02:32:42;97567.97;;;7.21;100.00
28448;BME280;15675;52.870;-1.416;2024-03-29T02:35:08;97570.53;;;7.48;100.00
28448;BME280;15675;52.870;-1.416;2024-03-29T02:37:36;97575.84;;;7.43;100.00
28448;BME280;15675;52.870;-1.416;2024-03-29T02:40:03;97569.69;;;7.20;100.00
28448;BME280;15675;52.870;-1.416;2024-03-29T02:42:29;97570.69;;;7.43;100.00
28448;BME280;15675;52.870;-1.416;2024-03-29T02:44:54;97575.47;;;7.29;100.00
28448;BME280;15675;52.870;-1.416;2024-03-29T02:47:21;97578.72;;;7.34;100.00
28448;BME280;15675;52.870;-1.416;2024-03-29T02:49:47;97575.75;;;7.46;100.00
28448;BME280;15675;52.870;-1.416;2024-03-29T02:52:12;97583.94;;;7.32;100.00
28448;BME280;15675;52.870;-1.416;2024-03-29T02:54:37;97584.75;;;7.34;100.00
28448;BME280;15675;52.870;-1.416;2024-03-29T02:57:03;97584.91;;;7.30;100.00
28448;BME280;15675;52.870;-1.416;2024-03-29T02:59:29;97582.56;;;7.22;100.00
28448;BME280;15675;52.870;-1.416;2024-03-29T03:01:54;97583.78;;;7.10;100.00
28448;BME280;15675;52.870;-1.416;2024-03-29T03:04:20;97580.31;;;7.11;100.00
28448;BME280;15675;52.870;-1.416;2024-03-29T03:06:45;97578.03;;;7.02;100.00
28448;BME280;15675;52.870;-1.416;2024-03-29T03:09:11;97579.31;;;7.15;100.00
28448;BME280;15675;52.870;-1.416;2024-03-29T03:11:55;97571.41;;;7.47;100.00
28448;BME280;15675;52.870;-1.416;2024-03-29T03:14:20;97571.28;;;7.24;100.00
28448;BME280;15675;52.870;-1.416;2024-03-29T03:16:45;97575.31;;;7.06;100.00
28448;BME280;15675;52.870;-1.416;2024-03-29T03:19:11;97588.97;;;7.35;100.00
28448;BME280;15675;52.870;-1.416;2024-03-29T03:21:36;97576.13;;;7.08;100.00
28448;BME280;15675;52.870;-1.416;2024-03-29T03:24:02;97582.31;;;7.30;100.00
28448;BME280;15675;52.870;-1.416;2024-03-29T03:26:29;97580.84;;;7.21;100.00
28448;BME280;15675;52.870;-1.416;2024-03-29T03:28:55;97585.38;;;7.14;100.00
28448;BME280;15675;52.870;-1.416;2024-03-29T03:31:20;97588.03;;;7.38;100.00
28448;BME280;15675;52.870;-1.416;2024-03-29T03:33:46;97594.84;;;7.40;100.00
28448;BME280;15675;52.870;-1.416;2024-03-29T03:36:11;97585.78;;;7.54;100.00
28448;BME280;15675;52.870;-1.416;2024-03-29T03:38:37;97596.06;;;7.30;100.00
28448;BME280;15675;52.870;-1.416;2024-03-29T03:41:03;97597.94;;;7.25;100.00
28448;BME280;15675;52.870;-1.416;2024-03-29T03:43:29;97595.00;;;7.09;100.00
28448;BME280;15675;52.870;-1.416;2024-03-29T03:46:00;97589.03;;;7.60;100.00
28448;BME280;15675;52.870;-1.416;2024-03-29T03:48:26;97603.63;;;7.35;100.00
28448;BME280;15675;52.870;-1.416;2024-03-29T03:50:51;97601.66;;;7.43;100.00
28448;BME280;15675;52.870;-1.416;2024-03-29T03:53:16;97609.00;;;7.29;100.00
28448;BME280;15675;52.870;-1.416;2024-03-29T03:55:42;97606.31;;;6.77;100.00
28448;BME280;15675;52.870;-1.416;2024-03-29T03:58:07;97612.34;;;7.04;100.00
28448;BME280;15675;52.870;-1.416;2024-03-29T04:00:33;97609.41;;;6.88;100.00
28448;BME280;15675;52.870;-1.416;2024-03-29T04:02:59;97615.69;;;6.79;100.00
28448;BME280;15675;52.870;-1.416;2024-03-29T04:05:24;97617.75;;;6.68;100.00
28448;BME280;15675;52.870;-1.416;2024-03-29T04:07:51;97616.50;;;6.81;100.00
28448;BME280;15675;52.870;-1.416;2024-03-29T04:10:17;97619.19;;;6.77;100.00
28448;BME280;15675;52.870;-1.416;2024-03-29T04:12:43;97620.75;;;7.11;100.00
28448;BME280;15675;52.870;-1.416;2024-03-29T04:15:08;97630.69;;;6.66;100.00
28448;BME280;15675;52.870;-1.416;2024-03-29T04:17:34;97626.72;;;6.54;100.00
28448;BME280;15675;52.870;-1.416;2024-03-29T04:20:00;97626.28;;;6.70;100.00
28448;BME280;15675;52.870;-1.416;2024-03-29T04:22:28;97627.75;;;6.79;100.00
28448;BME280;15675;52.870;-1.416;2024-03-29T04:24:54;97639.44;;;6.61;100.00
28448;BME280;15675;52.870;-1.416;2024-03-29T04:27:20;97644.88;;;6.51;100.00
28448;BME280;15675;52.870;-1.416;2024-03-29T04:29:45;97632.28;;;6.41;100.00
28448;BME280;15675;52.870;-1.416;2024-03-29T04:32:10;97647.44;;;6.51;100.00
28448;BME280;15675;52.870;-1.416;2024-03-29T04:34:36;97655.31;;;6.45;100.00
28448;BME280;15675;52.870;-1.416;2024-03-29T04:37:02;97656.53;;;6.33;100.00
28448;BME280;15675;52.870;-1.416;2024-03-29T04:39:27;97658.72;;;6.47;100.00
28448;BME280;15675;52.870;-1.416;2024-03-29T04:41:53;97657.81;;;6.48;100.00
28448;BME280;15675;52.870;-1.416;2024-03-29T04:44:27;97652.66;;;6.48;100.00
28448;BME280;15675;52.870;-1.416;2024-03-29T04:46:53;97647.88;;;6.66;100.00
28448;BME280;15675;52.870;-1.416;2024-03-29T04:49:23;97656.31;;;6.71;100.00
28448;BME280;15675;52.870;-1.416;2024-03-29T04:51:56;97659.31;;;6.85;100.00
28448;BME280;15675;52.870;-1.416;2024-03-29T04:54:23;97656.00;;;6.82;100.00
28448;BME280;15675;52.870;-1.416;2024-03-29T04:56:48;97660.25;;;7.13;100.00
28448;BME280;15675;52.870;-1.416;2024-03-29T04:59:13;97661.69;;;7.21;100.00
28448;BME280;15675;52.870;-1.416;2024-03-29T05:01:42;97663.94;;;6.74;100.00
28448;BME280;15675;52.870;-1.416;2024-03-29T05:04:09;97659.94;;;6.64;100.00
28448;BME280;15675;52.870;-1.416;2024-03-29T05:06:35;97666.16;;;6.86;100.00
28448;BME280;15675;52.870;-1.416;2024-03-29T05:09:01;97677.59;;;6.78;100.00
28448;BME280;15675;52.870;-1.416;2024-03-29T05:11:26;97665.44;;;6.83;100.00
28448;BME280;15675;52.870;-1.416;2024-03-29T05:13:51;97661.06;;;6.85;100.00
28448;BME280;15675;52.870;-1.416;2024-03-29T05:16:17;97662.84;;;7.11;100.00
28448;BME280;15675;52.870;-1.416;2024-03-29T05:18:43;97664.63;;;7.37;100.00
28448;BME280;15675;52.870;-1.416;2024-03-29T05:21:09;97674.19;;;7.34;100.00
28448;BME280;15675;52.870;-1.416;2024-03-29T05:23:34;97676.13;;;7.27;100.00
28448;BME280;15675;52.870;-1.416;2024-03-29T05:26:00;97672.63;;;7.01;100.00
28448;BME280;15675;52.870;-1.416;2024-03-29T05:28:25;97675.47;;;6.92;100.00
28448;BME280;15675;52.870;-1.416;2024-03-29T05:30:52;97676.38;;;6.89;100.00
28448;BME280;15675;52.870;-1.416;2024-03-29T05:33:17;97677.06;;;6.96;100.00
28448;BME280;15675;52.870;-1.416;2024-03-29T05:35:43;97676.13;;;6.99;100.00
28448;BME280;15675;52.870;-1.416;2024-03-29T05:38:08;97679.88;;;7.17;100.00
28448;BME280;15675;52.870;-1.416;2024-03-29T05:40:34;97669.94;;;7.33;100.00
28448;BME280;15675;52.870;-1.416;2024-03-29T05:42:59;97672.28;;;7.12;100.00
28448;BME280;15675;52.870;-1.416;2024-03-29T05:45:29;97665.41;;;7.11;100.00
28448;BME280;15675;52.870;-1.416;2024-03-29T05:47:57;97670.38;;;7.19;100.00
28448;BME280;15675;52.870;-1.416;2024-03-29T05:50:23;97675.78;;;7.38;100.00
28448;BME280;15675;52.870;-1.416;2024-03-29T05:52:53;97673.72;;;7.49;100.00
28448;BME280;15675;52.870;-1.416;2024-03-29T05:55:19;97666.94;;;7.18;100.00
28448;BME280;15675;52.870;-1.416;2024-03-29T05:57:45;97670.63;;;7.09;100.00
28448;BME280;15675;52.870;-1.416;2024-03-29T06:00:12;97676.09;;;7.29;100.00
28448;BME280;15675;52.870;-1.416;2024-03-29T06:02:42;97672.41;;;6.79;100.00
28448;BME280;15675;52.870;-1.416;2024-03-29T06:05:08;97670.06;;;7.28;100.00
28448;BME280;15675;52.870;-1.416;2024-03-29T06:07:34;97673.00;;;7.17;100.00
28448;BME280;15675;52.870;-1.416;2024-03-29T06:10:00;97674.06;;;7.38;100.00
28448;BME280;15675;52.870;-1.416;2024-03-29T06:12:29;97680.91;;;7.11;100.00
28448;BME280;15675;52.870;-1.416;2024-03-29T06:14:54;97680.88;;;7.13;100.00
28448;BME280;15675;52.870;-1.416;2024-03-29T06:17:38;97686.72;;;7.46;100.00
28448;BME280;15675;52.870;-1.416;2024-03-29T06:20:04;97684.19;;;7.45;100.00
28448;BME280;15675;52.870;-1.416;2024-03-29T06:22:30;97683.72;;;7.32;100.00
28448;BME280;15675;52.870;-1.416;2024-03-29T06:24:57;97686.03;;;7.68;100.00
28448;BME280;15675;52.870;-1.416;2024-03-29T06:27:33;97680.66;;;7.47;100.00
28448;BME280;15675;52.870;-1.416;2024-03-29T06:29:59;97681.72;;;7.68;100.00
28448;BME280;15675;52.870;-1.416;2024-03-29T06:32:25;97682.75;;;8.15;100.00
28448;BME280;15675;52.870;-1.416;2024-03-29T06:34:50;97675.22;;;8.32;100.00
28448;BME280;15675;52.870;-1.416;2024-03-29T06:37:16;97670.56;;;8.18;100.00
28448;BME280;15675;52.870;-1.416;2024-03-29T06:39:41;97680.13;;;7.89;100.00
28448;BME280;15675;52.870;-1.416;2024-03-29T06:42:09;97679.00;;;8.23;100.00
28448;BME280;15675;52.870;-1.416;2024-03-29T06:44:35;97684.47;;;8.64;100.00
28448;BME280;15675;52.870;-1.416;2024-03-29T06:47:02;97690.13;;;8.51;100.00
28448;BME280;15675;52.870;-1.416;2024-03-29T06:49:27;97696.06;;;8.27;100.00
28448;BME280;15675;52.870;-1.416;2024-03-29T06:51:53;97693.78;;;8.20;100.00
28448;BME280;15675;52.870;-1.416;2024-03-29T06:54:24;97691.06;;;8.23;100.00
28448;BME280;15675;52.870;-1.416;2024-03-29T06:56:55;97697.59;;;8.33;100.00
28448;BME280;15675;52.870;-1.416;2024-03-29T06:59:20;97693.03;;;8.41;100.00
28448;BME280;15675;52.870;-1.416;2024-03-29T07:01:46;97698.03;;;8.46;100.00
28448;BME280;15675;52.870;-1.416;2024-03-29T07:04:24;97708.72;;;8.60;100.00
28448;BME280;15675;52.870;-1.416;2024-03-29T07:06:50;97706.78;;;8.42;100.00
28448;BME280;15675;52.870;-1.416;2024-03-29T07:09:20;97708.31;;;8.73;100.00
28448;BME280;15675;52.870;-1.416;2024-03-29T07:11:47;97713.75;;;8.65;100.00
28448;BME280;15675;52.870;-1.416;2024-03-29T07:14:14;97708.53;;;8.67;100.00
28448;BME280;15675;52.870;-1.416;2024-03-29T07:16:41;97702.75;;;8.84;100.00
28448;BME280;15675;52.870;-1.416;2024-03-29T07:19:06;97711.94;;;8.67;100.00
28448;BME280;15675;52.870;-1.416;2024-03-29T07:21:32;97702.06;;;8.78;100.00
28448;BME280;15675;52.870;-1.416;2024-03-29T07:23:57;97705.28;;;8.85;100.00
28448;BME280;15675;52.870;-1.416;2024-03-29T07:26:23;97705.66;;;8.98;100.00
28448;BME280;15675;52.870;-1.416;2024-03-29T07:28:49;97703.06;;;8.98;100.00
28448;BME280;15675;52.870;-1.416;2024-03-29T07:31:14;97706.63;;;9.18;100.00
28448;BME280;15675;52.870;-1.416;2024-03-29T07:33:40;97707.91;;;9.29;100.00
28448;BME280;15675;52.870;-1.416;2024-03-29T07:36:05;97708.41;;;8.93;100.00
28448;BME280;15675;52.870;-1.416;2024-03-29T07:38:31;97696.72;;;8.83;100.00
28448;BME280;15675;52.870;-1.416;2024-03-29T07:40:57;97707.75;;;9.10;100.00
28448;BME280;15675;52.870;-1.416;2024-03-29T07:43:22;97710.22;;;9.13;100.00
28448;BME280;15675;52.870;-1.416;2024-03-29T07:45:48;97709.66;;;9.29;100.00
28448;BME280;15675;52.870;-1.416;2024-03-29T07:48:15;97695.53;;;8.68;100.00
28448;BME280;15675;52.870;-1.416;2024-03-29T07:50:46;97706.69;;;8.94;100.00
28448;BME280;15675;52.870;-1.416;2024-03-29T07:53:12;97708.19;;;9.22;100.00
28448;BME280;15675;52.870;-1.416;2024-03-29T07:55:39;97702.72;;;9.07;100.00
28448;BME280;15675;52.870;-1.416;2024-03-29T07:58:05;97709.91;;;9.23;100.00
28448;BME280;15675;52.870;-1.416;2024-03-29T08:00:31;97711.72;;;9.21;100.00
28448;BME280;15675;52.870;-1.416;2024-03-29T08:02:58;97709.25;;;9.40;100.00
28448;BME280;15675;52.870;-1.416;2024-03-29T08:05:23;97722.97;;;9.64;100.00
28448;BME280;15675;52.870;-1.416;2024-03-29T08:07:49;97722.75;;;9.91;100.00
28448;BME280;15675;52.870;-1.416;2024-03-29T08:10:15;97721.06;;;9.67;100.00
28448;BME280;15675;52.870;-1.416;2024-03-29T08:12:41;97727.66;;;9.76;100.00
28448;BME280;15675;52.870;-1.416;2024-03-29T08:15:06;97723.72;;;10.09;100.00
28448;BME280;15675;52.870;-1.416;2024-03-29T08:17:33;97721.88;;;10.12;100.00
28448;BME280;15675;52.870;-1.416;2024-03-29T08:19:58;97731.22;;;9.74;100.00
28448;BME280;15675;52.870;-1.416;2024-03-29T08:22:24;97733.38;;;9.62;100.00
28448;BME280;15675;52.870;-1.416;2024-03-29T08:24:49;97734.50;;;9.99;100.00
28448;BME280;15675;52.870;-1.416;2024-03-29T08:27:15;97733.19;;;10.10;100.00
28448;BME280;15675;52.870;-1.416;2024-03-29T08:29:42;97739.28;;;10.09;100.00
28448;BME280;15675;52.870;-1.416;2024-03-29T08:32:07;97735.84;;;9.88;100.00
28448;BME280;15675;52.870;-1.416;2024-03-29T08:34:36;97732.41;;;10.50;100.00
28448;BME280;15675;52.870;-1.416;2024-03-29T08:37:02;97740.91;;;10.11;100.00
28448;BME280;15675;52.870;-1.416;2024-03-29T08:39:31;97732.31;;;10.52;100.00
28448;BME280;15675;52.870;-1.416;2024-03-29T08:41:58;97733.69;;;9.97;100.00
28448;BME280;15675;52.870;-1.416;2024-03-29T08:44:24;97734.31;;;10.25;100.00
28448;BME280;15675;52.870;-1.416;2024-03-29T08:46:50;97735.41;;;10.19;100.00
28448;BME280;15675;52.870;-1.416;2024-03-29T08:49:16;97736.78;;;10.28;100.00
28448;BME280;15675;52.870;-1.416;2024-03-29T08:51:41;97741.09;;;10.07;100.00
28448;BME280;15675;52.870;-1.416;2024-03-29T08:54:07;97747.44;;;9.99;100.00
28448;BME280;15675;52.870;-1.416;2024-03-29T08:56:32;97741.94;;;9.87;100.00
28448;BME280;15675;52.870;-1.416;2024-03-29T08:59:04;97744.72;;;10.02;100.00
28448;BME280;15675;52.870;-1.416;2024-03-29T09:01:35;97740.34;;;10.46;100.00
28448;BME280;15675;52.870;-1.416;2024-03-29T09:04:01;97742.78;;;10.50;100.00
28448;BME280;15675;52.870;-1.416;2024-03-29T09:06:26;97735.91;;;10.68;100.00
28448;BME280;15675;52.870;-1.416;2024-03-29T09:08:52;97731.59;;;10.48;100.00
28448;BME280;15675;52.870;-1.416;2024-03-29T09:11:18;97735.38;;;10.62;100.00
28448;BME280;15675;52.870;-1.416;2024-03-29T09:13:43;97736.78;;;10.48;100.00
28448;BME280;15675;52.870;-1.416;2024-03-29T09:16:09;97739.13;;;10.34;100.00
28448;BME280;15675;52.870;-1.416;2024-03-29T09:18:35;97739.69;;;11.01;100.00
28448;BME280;15675;52.870;-1.416;2024-03-29T09:21:00;97737.00;;;10.83;100.00
28448;BME280;15675;52.870;-1.416;2024-03-29T09:23:27;97750.66;;;10.68;100.00
28448;BME280;15675;52.870;-1.416;2024-03-29T09:25:56;97752.47;;;10.45;100.00
28448;BME280;15675;52.870;-1.416;2024-03-29T09:28:25;97755.91;;;10.66;100.00
28448;BME280;15675;52.870;-1.416;2024-03-29T09:30:57;97758.97;;;10.35;100.00
28448;BME280;15675;52.870;-1.416;2024-03-29T09:33:23;97764.38;;;10.29;100.00
28448;BME280;15675;52.870;-1.416;2024-03-29T09:35:48;97760.97;;;10.88;100.00
28448;BME280;15675;52.870;-1.416;2024-03-29T09:38:14;97763.25;;;10.57;100.00
28448;BME280;15675;52.870;-1.416;2024-03-29T09:40:39;97769.56;;;10.91;100.00
28448;BME280;15675;52.870;-1.416;2024-03-29T09:43:06;97774.81;;;10.27;100.00
28448;BME280;15675;52.870;-1.416;2024-03-29T09:45:35;97779.09;;;10.28;100.00
28448;BME280;15675;52.870;-1.416;2024-03-29T09:48:05;97766.00;;;10.73;100.00
28448;BME280;15675;52.870;-1.416;2024-03-29T09:50:33;97776.59;;;10.68;100.00
28448;BME280;15675;52.870;-1.416;2024-03-29T09:53:00;97775.88;;;10.64;100.00
28448;BME280;15675;52.870;-1.416;2024-03-29T09:55:27;97780.09;;;11.07;100.00
28448;BME280;15675;52.870;-1.416;2024-03-29T09:57:53;97782.63;;;10.68;100.00
28448;BME280;15675;52.870;-1.416;2024-03-29T10:00:19;97786.31;;;10.63;100.00
28448;BME280;15675;52.870;-1.416;2024-03-29T10:02:45;97775.94;;;10.83;100.00
28448;BME280;15675;52.870;-1.416;2024-03-29T10:05:12;97785.88;;;10.74;100.00
28448;BME280;15675;52.870;-1.416;2024-03-29T10:07:39;97797.06;;;10.74;100.00
28448;BME280;15675;52.870;-1.416;2024-03-29T10:10:05;97800.91;;;10.86;100.00
28448;BME280;15675;52.870;-1.416;2024-03-29T10:12:31;97797.25;;;10.90;100.00
28448;BME280;15675;52.870;-1.416;2024-03-29T10:14:57;97803.09;;;11.14;100.00
28448;BME280;15675;52.870;-1.416;2024-03-29T10:17:34;97794.69;;;11.09;100.00
28448;BME280;15675;52.870;-1.416;2024-03-29T10:20:01;97803.66;;;11.02;100.00
28448;BME280;15675;52.870;-1.416;2024-03-29T10:22:35;97802.34;;;11.12;100.00
28448;BME280;15675;52.870;-1.416;2024-03-29T10:25:01;97798.41;;;11.03;100.00
28448;BME280;15675;52.870;-1.416;2024-03-29T10:27:27;97795.31;;;11.14;100.00
28448;BME280;15675;52.870;-1.416;2024-03-29T10:29:53;97807.38;;;11.72;100.00
28448;BME280;15675;52.870;-1.416;2024-03-29T10:32:18;97796.66;;;11.61;100.00
28448;BME280;15675;52.870;-1.416;2024-03-29T10:34:44;97803.53;;;11.05;100.00
28448;BME280;15675;52.870;-1.416;2024-03-29T10:37:09;97807.13;;;11.40;100.00
28448;BME280;15675;52.870;-1.416;2024-03-29T10:39:36;97803.53;;;11.62;100.00
28448;BME280;15675;52.870;-1.416;2024-03-29T10:42:01;97799.44;;;11.75;100.00
28448;BME280;15675;52.870;-1.416;2024-03-29T10:44:28;97802.47;;;11.66;100.00
28448;BME280;15675;52.870;-1.416;2024-03-29T10:46:56;97801.06;;;11.40;100.00
28448;BME280;15675;52.870;-1.416;2024-03-29T10:49:24;97805.03;;;11.49;100.00
28448;BME280;15675;52.870;-1.416;2024-03-29T10:51:49;97815.53;;;11.65;100.00
28448;BME280;15675;52.870;-1.416;2024-03-29T10:54:16;97808.53;;;12.40;100.00
28448;BME280;15675;52.870;-1.416;2024-03-29T10:56:43;97785.13;;;12.40;100.00
28448;BME280;15675;52.870;-1.416;2024-03-29T11:01:59;97790.22;;;12.24;100.00
28448;BME280;15675;52.870;-1.416;2024-03-29T11:04:29;97801.16;;;12.66;100.00
28448;BME280;15675;52.870;-1.416;2024-03-29T11:06:58;97799.03;;;12.21;97.53
28448;BME280;15675;52.870;-1.416;2024-03-29T11:09:28;97799.66;;;11.90;94.32
28448;BME280;15675;52.870;-1.416;2024-03-29T11:11:58;97788.97;;;11.96;93.87
28448;BME280;15675;52.870;-1.416;2024-03-29T11:14:41;97805.81;;;12.24;94.16
28448;BME280;15675;52.870;-1.416;2024-03-29T11:17:11;97787.63;;;12.24;93.35
28448;BME280;15675;52.870;-1.416;2024-03-29T11:19:39;97801.78;;;12.53;94.45
28448;BME280;15675;52.870;-1.416;2024-03-29T11:22:05;97794.59;;;12.92;92.57
28448;BME280;15675;52.870;-1.416;2024-03-29T11:24:32;97787.00;;;12.36;84.17
28448;BME280;15675;52.870;-1.416;2024-03-29T11:26:57;97775.22;;;12.98;85.70
28448;BME280;15675;52.870;-1.416;2024-03-29T11:29:23;97785.72;;;12.96;80.90
28448;BME280;15675;52.870;-1.416;2024-03-29T11:31:58;97801.38;;;13.12;79.90
28448;BME280;15675;52.870;-1.416;2024-03-29T11:34:24;97793.53;;;12.96;78.59
28448;BME280;15675;52.870;-1.416;2024-03-29T11:36:49;97804.25;;;13.23;76.04
28448;BME280;15675;52.870;-1.416;2024-03-29T11:39:22;97808.72;;;13.21;75.07
28448;BME280;15675;52.870;-1.416;2024-03-29T11:41:50;97799.22;;;13.20;75.63
28448;BME280;15675;52.870;-1.416;2024-03-29T11:44:17;97804.47;;;13.03;72.02
28448;BME280;15675;52.870;-1.416;2024-03-29T11:46:43;97807.75;;;13.06;70.42
28448;BME280;15675;52.870;-1.416;2024-03-29T11:49:12;97798.53;;;13.17;68.32
28448;BME280;15675;52.870;-1.416;2024-03-29T11:51:37;97794.53;;;13.27;69.84
28448;BME280;15675;52.870;-1.416;2024-03-29T11:54:03;97800.59;;;13.43;69.97
28448;BME280;15675;52.870;-1.416;2024-03-29T11:56:28;97803.38;;;13.40;68.17
28448;BME280;15675;52.870;-1.416;2024-03-29T11:58:54;97816.41;;;13.40;68.75
28448;BME280;15675;52.870;-1.416;2024-03-29T12:01:26;97808.31;;;12.95;66.68
28448;BME280;15675;52.870;-1.416;2024-03-29T12:03:51;97801.09;;;12.67;64.18
28448;BME280;15675;52.870;-1.416;2024-03-29T12:06:17;97811.22;;;13.23;65.30
28448;BME280;15675;52.870;-1.416;2024-03-29T12:08:44;97797.03;;;12.95;63.66
28448;BME280;15675;52.870;-1.416;2024-03-29T12:11:10;97805.97;;;13.40;64.30
28448;BME280;15675;52.870;-1.416;2024-03-29T12:13:36;97800.69;;;13.42;63.64
28448;BME280;15675;52.870;-1.416;2024-03-29T12:16:02;97807.09;;;13.03;63.20
28448;BME280;15675;52.870;-1.416;2024-03-29T12:18:28;97801.59;;;13.41;64.18
28448;BME280;15675;52.870;-1.416;2024-03-29T12:20:57;97818.53;;;13.16;62.99
28448;BME280;15675;52.870;-1.416;2024-03-29T12:23:23;97817.44;;;13.20;62.33
28448;BME280;15675;52.870;-1.416;2024-03-29T12:25:50;97826.50;;;13.46;63.15
28448;BME280;15675;52.870;-1.416;2024-03-29T12:28:16;97840.63;;;13.25;63.81
28448;BME280;15675;52.870;-1.416;2024-03-29T12:30:44;97844.56;;;13.16;65.13
28448;BME280;15675;52.870;-1.416;2024-03-29T12:33:14;97851.41;;;12.84;66.37
28448;BME280;15675;52.870;-1.416;2024-03-29T12:35:43;97856.25;;;12.91;64.97
28448;BME280;15675;52.870;-1.416;2024-03-29T12:38:12;97850.47;;;13.20;65.71
28448;BME280;15675;52.870;-1.416;2024-03-29T12:40:38;97845.75;;;12.93;65.84
28448;BME280;15675;52.870;-1.416;2024-03-29T12:43:07;97858.31;;;12.85;66.48
28448;BME280;15675;52.870;-1.416;2024-03-29T12:45:34;97853.28;;;13.15;68.69
28448;BME280;15675;52.870;-1.416;2024-03-29T12:48:00;97860.78;;;13.55;68.89